createdAt,value
2023-04-03T00:00:01.951Z,100848.00
2023-04-03T00:02:31.677Z,100856.00
2023-04-03T00:05:01.824Z,100855.41
2023-04-03T00:07:37.572Z,100856.47
2023-04-03T00:10:11.878Z,100854.44
2023-04-03T00:12:41.477Z,100864.88
2023-04-03T00:15:12.027Z,100856.28
2023-04-03T00:17:41.667Z,100857.66
2023-04-03T00:20:12.210Z,100861.25
2023-04-03T00:22:41.764Z,100862.38
2023-04-03T00:25:14.232Z,100860.66
2023-04-03T00:27:44.666Z,100859.44
2023-04-03T00:30:17.908Z,100866.25
2023-04-03T00:32:47.798Z,100864.63
2023-04-03T00:35:17.444Z,100866.88
2023-04-03T00:37:47.450Z,100856.44
2023-04-03T00:40:19.868Z,100860.16
2023-04-03T00:42:51.921Z,100846.25
2023-04-03T00:45:30.416Z,100858.78
2023-04-03T00:48:01.028Z,100864.63
2023-04-03T00:50:31.390Z,100864.22
2023-04-03T00:53:01.758Z,100865.03
2023-04-03T00:55:34.410Z,100870.59
2023-04-03T00:58:05.590Z,100868.31
2023-04-03T01:00:35.515Z,100876.53
2023-04-03T01:03:05.529Z,100879.81
2023-04-03T01:05:35.740Z,100878.16
2023-04-03T01:08:05.683Z,100887.50
2023-04-03T01:10:38.180Z,100875.72
2023-04-03T01:13:22.626Z,100885.25
2023-04-03T01:15:52.510Z,100880.16
2023-04-03T01:18:22.172Z,100886.66
2023-04-03T01:21:17.966Z,100884.44
2023-04-03T01:24:04.010Z,100879.66
2023-04-03T01:26:36.952Z,100879.38
2023-04-03T01:29:07.557Z,100887.25
2023-04-03T01:31:56.690Z,100884.38
2023-04-03T01:34:27.757Z,100886.03
2023-04-03T01:36:57.680Z,100882.25
2023-04-03T01:39:27.639Z,100886.56
2023-04-03T01:41:57.429Z,100878.81
2023-04-03T01:44:26.969Z,100891.47
2023-04-03T01:46:59.159Z,100892.09
2023-04-03T01:49:28.817Z,100889.59
2023-04-03T01:51:58.473Z,100892.66
2023-04-03T01:54:28.184Z,100893.28
2023-04-03T01:56:57.812Z,100896.06
2023-04-03T01:59:27.650Z,100888.19
2023-04-03T02:01:59.798Z,100888.03
2023-04-03T02:04:29.391Z,100899.09
2023-04-03T02:06:59.025Z,100898.81
2023-04-03T02:09:28.659Z,100896.84
2023-04-03T02:11:58.196Z,100895.09
2023-04-03T02:14:28.621Z,100902.03
2023-04-03T02:17:01.893Z,100899.97
2023-04-03T02:19:31.530Z,100895.44
2023-04-03T02:22:01.121Z,100904.72
2023-04-03T02:24:30.803Z,100904.63
2023-04-03T02:27:00.932Z,100894.09
2023-04-03T02:29:30.597Z,100907.47
2023-04-03T02:32:05.466Z,100899.53
2023-04-03T02:34:35.041Z,100910.69
2023-04-03T02:37:04.599Z,100893.50
2023-04-03T02:39:34.144Z,100900.53
2023-04-03T02:42:03.678Z,100913.28
2023-04-03T02:44:33.308Z,100908.91
2023-04-03T02:47:05.725Z,100900.34
2023-04-03T02:49:35.527Z,100915.13
2023-04-03T02:52:05.100Z,100914.19
2023-04-03T02:54:34.638Z,100919.25
2023-04-03T02:57:04.532Z,100916.75
2023-04-03T02:59:34.121Z,100927.78
2023-04-03T03:02:06.365Z,100921.66
2023-04-03T03:04:35.932Z,100916.47
2023-04-03T03:07:07.446Z,100930.13
2023-04-03T03:09:37.274Z,100921.38
2023-04-03T03:12:07.424Z,100924.56
2023-04-03T03:14:36.990Z,100926.00
2023-04-03T03:17:09.140Z,100923.84
2023-04-03T03:19:38.777Z,100933.09
2023-04-03T03:22:08.361Z,100921.41
2023-04-03T03:24:37.971Z,100920.53
2023-04-03T03:27:07.541Z,100930.56
2023-04-03T03:29:37.092Z,100925.03
2023-04-03T03:32:12.692Z,100917.16
2023-04-03T03:34:42.403Z,100921.47
2023-04-03T03:37:11.960Z,100925.72
2023-04-03T03:39:41.562Z,100933.03
2023-04-03T03:42:11.168Z,100939.78
2023-04-03T03:44:40.754Z,100933.19
2023-04-03T03:47:13.408Z,100944.84
2023-04-03T03:49:42.963Z,100940.59
2023-04-03T03:52:12.779Z,100941.66
2023-04-03T03:54:42.299Z,100945.75
2023-04-03T03:57:12.327Z,100942.25
2023-04-03T03:59:42.991Z,100951.09
2023-04-03T04:02:19.002Z,100957.56
2023-04-03T04:04:48.553Z,100944.53
2023-04-03T04:07:18.188Z,100948.75
2023-04-03T04:09:47.826Z,100949.44
2023-04-03T04:12:17.484Z,100955.59
2023-04-03T04:14:47.864Z,100962.25
2023-04-03T04:17:20.127Z,100963.94
2023-04-03T04:19:49.689Z,100964.66
2023-04-03T04:22:19.214Z,100968.31
2023-04-03T04:24:48.776Z,100961.06
2023-04-03T04:27:18.596Z,100970.63
2023-04-03T04:29:48.134Z,100975.78
2023-04-03T04:32:29.157Z,100975.59
2023-04-03T04:34:58.734Z,100988.28
2023-04-03T04:37:28.437Z,100991.59
2023-04-03T04:39:58.006Z,100986.41
2023-04-03T04:42:27.780Z,100980.44
2023-04-03T04:44:57.298Z,100981.16
2023-04-03T04:47:29.449Z,100988.41
2023-04-03T04:49:59.353Z,101000.06
2023-04-03T04:52:28.903Z,101001.00
2023-04-03T04:54:58.408Z,101006.38
2023-04-03T04:57:28.093Z,101013.28
2023-04-03T04:59:57.622Z,101008.00
2023-04-03T05:02:32.857Z,101008.56
2023-04-03T05:05:04.840Z,101007.31
2023-04-03T05:07:34.743Z,101015.06
2023-04-03T05:10:04.673Z,100998.25
2023-04-03T05:12:34.202Z,101016.94
2023-04-03T05:15:03.708Z,101015.06
2023-04-03T05:17:35.903Z,101020.34
2023-04-03T05:20:06.640Z,101024.63
2023-04-03T05:22:36.722Z,101034.63
2023-04-03T05:25:06.746Z,101030.97
2023-04-03T05:27:36.647Z,101030.78
2023-04-03T05:30:06.703Z,101032.47
2023-04-03T05:32:42.107Z,101031.69
2023-04-03T05:35:12.866Z,101038.91
2023-04-03T05:37:42.677Z,101047.88
2023-04-03T05:40:13.392Z,101043.59
2023-04-03T05:42:43.056Z,101053.19
2023-04-03T05:45:13.462Z,101051.75
2023-04-03T05:47:45.983Z,101046.03
2023-04-03T05:50:15.860Z,101054.69
2023-04-03T05:52:49.842Z,101048.53
2023-04-03T05:55:19.725Z,101049.50
2023-04-03T05:57:49.276Z,101060.16
2023-04-03T06:00:19.588Z,101057.09
2023-04-03T06:02:51.842Z,101060.78
2023-04-03T06:05:28.932Z,101062.06
2023-04-03T06:07:58.869Z,101061.03
2023-04-03T06:10:28.491Z,101063.97
2023-04-03T06:12:58.043Z,101056.66
2023-04-03T06:15:27.654Z,101069.44
2023-04-03T06:18:00.018Z,101062.78
2023-04-03T06:20:29.686Z,101064.91
2023-04-03T06:22:59.422Z,101068.72
2023-04-03T06:25:28.982Z,101063.19
2023-04-03T06:27:59.088Z,101068.00
2023-04-03T06:30:28.686Z,101064.56
2023-04-03T06:33:00.903Z,101080.91
2023-04-03T06:35:31.585Z,101078.19
2023-04-03T06:38:01.233Z,101080.66
2023-04-03T06:40:30.872Z,101086.44
2023-04-03T06:43:00.449Z,101086.00
2023-04-03T06:45:29.966Z,101100.72
2023-04-03T06:48:02.643Z,101086.53
2023-04-03T06:50:32.322Z,101088.19
2023-04-03T06:53:02.099Z,101096.44
2023-04-03T06:55:31.690Z,101092.63
2023-04-03T06:58:01.698Z,101091.84
2023-04-03T07:00:31.832Z,101102.50
2023-04-03T07:03:04.052Z,101105.41
2023-04-03T07:05:33.639Z,101118.13
2023-04-03T07:08:03.252Z,101106.75
2023-04-03T07:10:32.862Z,101113.06
2023-04-03T07:13:02.906Z,101119.47
2023-04-03T07:15:32.490Z,101112.69
2023-04-03T07:18:05.768Z,101119.31
2023-04-03T07:20:35.547Z,101118.84
2023-04-03T07:23:05.367Z,101119.69
2023-04-03T07:25:35.930Z,101124.13
2023-04-03T07:28:05.778Z,101131.09
2023-04-03T07:30:35.336Z,101132.72
2023-04-03T07:33:07.593Z,101135.94
2023-04-03T07:35:37.895Z,101130.81
2023-04-03T07:38:07.695Z,101134.56
2023-04-03T07:40:37.661Z,101132.34
2023-04-03T07:43:07.803Z,101142.56
2023-04-03T07:45:39.151Z,101129.94
2023-04-03T07:48:11.540Z,101147.34
2023-04-03T07:50:41.394Z,101134.25
2023-04-03T07:53:11.075Z,101146.16
2023-04-03T07:55:44.152Z,101127.25
2023-04-03T07:58:15.714Z,101125.84
2023-04-03T08:00:45.715Z,101117.84
2023-04-03T08:03:19.110Z,101125.97
2023-04-03T08:05:50.415Z,101127.06
2023-04-03T08:08:22.407Z,101143.38
2023-04-03T08:10:52.929Z,101134.31
2023-04-03T08:13:23.680Z,101136.81
2023-04-03T08:15:53.300Z,101145.13
2023-04-03T08:18:25.832Z,101136.88
2023-04-03T08:20:55.867Z,101153.06
2023-04-03T08:23:25.714Z,101137.28
2023-04-03T08:25:55.359Z,101139.53
2023-04-03T08:28:24.851Z,101124.94
2023-04-03T08:30:54.397Z,101131.00
2023-04-03T08:33:26.542Z,101134.34
2023-04-03T08:35:56.476Z,101129.31
2023-04-03T08:38:26.023Z,101123.38
2023-04-03T08:41:04.765Z,101133.84
2023-04-03T08:43:45.364Z,101127.22
2023-04-03T08:46:18.882Z,101142.28
2023-04-03T08:48:52.944Z,101138.47
2023-04-03T08:51:24.527Z,101132.13
2023-04-03T08:54:00.744Z,101128.16
2023-04-03T08:56:30.449Z,101121.94
2023-04-03T08:59:02.518Z,101133.25
2023-04-03T09:01:38.744Z,101120.75
2023-04-03T09:04:16.127Z,101117.69
2023-04-03T09:06:50.003Z,101131.84
2023-04-03T09:09:29.012Z,101132.06
2023-04-03T09:12:10.563Z,101127.50
2023-04-03T09:14:43.521Z,101131.88
2023-04-03T09:17:20.519Z,101129.34
2023-04-03T09:20:00.884Z,101132.34
2023-04-03T09:22:41.774Z,101128.91
2023-04-03T09:25:19.014Z,101138.59
2023-04-03T09:27:49.191Z,101139.50
2023-04-03T09:30:20.147Z,101146.69
2023-04-03T09:32:51.173Z,101157.97
2023-04-03T09:35:36.337Z,101134.25
2023-04-03T09:38:23.048Z,101140.44
2023-04-03T09:40:53.900Z,101133.78
2023-04-03T09:43:29.018Z,101135.59
2023-04-03T09:46:00.519Z,101147.00
2023-04-03T09:48:30.373Z,101138.72
2023-04-03T09:51:05.409Z,101140.38
2023-04-03T09:53:39.269Z,101144.06
2023-04-03T09:56:24.479Z,101146.31
2023-04-03T09:58:56.339Z,101158.53
2023-04-03T10:01:31.985Z,101147.75
2023-04-03T10:04:11.124Z,101147.06
2023-04-03T10:06:48.471Z,101132.84
2023-04-03T10:09:23.938Z,101140.03
2023-04-03T10:12:13.315Z,101134.81
2023-04-03T10:14:44.346Z,101148.97
2023-04-03T10:17:22.568Z,101136.53
2023-04-03T10:19:58.971Z,101146.41
2023-04-03T10:22:40.868Z,101124.59
2023-04-03T10:25:24.601Z,101138.06
2023-04-03T10:28:02.758Z,101121.19
2023-04-03T10:30:51.178Z,101126.84
2023-04-03T10:33:49.819Z,101128.91
2023-04-03T10:36:27.482Z,101130.00
2023-04-03T10:39:05.857Z,101107.50
2023-04-03T10:41:47.659Z,101124.16
2023-04-03T10:44:29.966Z,101122.19
2023-04-03T10:47:06.073Z,101130.19
2023-04-03T10:49:42.543Z,101121.13
2023-04-03T10:52:20.618Z,101114.72
2023-04-03T10:55:06.253Z,101121.75
2023-04-03T10:57:35.859Z,101118.72
2023-04-03T11:00:10.093Z,101112.84
2023-04-03T11:02:45.564Z,101122.97
2023-04-03T11:05:25.314Z,101099.09
2023-04-03T11:07:57.295Z,101125.50
2023-04-03T11:10:39.898Z,101118.41
2023-04-03T11:13:15.235Z,101109.78
2023-04-03T11:15:45.726Z,101104.75
2023-04-03T11:18:21.026Z,101116.69
2023-04-03T11:20:57.591Z,101123.16
2023-04-03T11:23:35.557Z,101121.03
2023-04-03T11:26:17.389Z,101124.16
2023-04-03T11:28:47.663Z,101115.34
2023-04-03T11:31:32.189Z,101109.66
2023-04-03T11:34:11.904Z,101103.78
2023-04-03T11:36:48.498Z,101120.16
2023-04-03T11:39:29.340Z,101114.28
2023-04-03T11:42:18.687Z,101107.19
2023-04-03T11:44:48.315Z,101113.84
2023-04-03T11:47:49.748Z,101098.00
2023-04-03T11:50:44.129Z,101108.22
2023-04-03T11:53:36.978Z,101099.84
2023-04-03T11:56:31.507Z,101101.84
2023-04-03T11:59:25.901Z,101087.69
2023-04-03T12:01:56.883Z,101109.16
2023-04-03T12:04:30.282Z,101106.94
2023-04-03T12:07:17.988Z,101096.06
2023-04-03T12:10:05.942Z,101105.69
2023-04-03T12:12:39.545Z,101105.69
2023-04-03T12:15:54.962Z,101100.28
2023-04-03T12:19:04.631Z,101100.63
2023-04-03T12:22:13.287Z,101091.03
2023-04-03T12:24:44.237Z,101085.41
2023-04-03T12:27:42.078Z,101058.06
2023-04-03T12:30:24.400Z,101092.31
2023-04-03T12:33:24.568Z,101082.81
2023-04-03T12:36:08.140Z,101099.78
2023-04-03T12:38:53.124Z,101097.25
2023-04-03T12:41:31.685Z,101081.84
2023-04-03T12:44:20.519Z,101093.22
2023-04-03T12:46:52.726Z,101082.44
2023-04-03T12:49:42.767Z,101095.63
2023-04-03T12:52:26.606Z,101101.47
2023-04-03T12:54:57.501Z,101100.81
2023-04-03T12:57:30.340Z,101084.41
2023-04-03T13:00:01.020Z,101057.66
2023-04-03T13:02:32.470Z,101085.06
2023-04-03T13:05:08.603Z,101084.84
2023-04-03T13:07:44.637Z,101084.69
2023-04-03T13:10:20.031Z,101075.47
2023-04-03T13:12:51.209Z,101060.03
2023-04-03T13:15:24.341Z,101077.50
2023-04-03T13:17:56.311Z,101083.09
2023-04-03T13:20:29.957Z,101090.41
2023-04-03T13:23:06.483Z,101083.00
2023-04-03T13:25:40.292Z,101066.72
2023-04-03T13:28:14.740Z,101071.44
2023-04-03T13:30:57.593Z,101078.59
2023-04-03T13:33:29.897Z,101075.91
2023-04-03T13:36:01.833Z,101077.91
2023-04-03T13:38:37.454Z,101067.66
2023-04-03T13:41:24.974Z,101074.19
2023-04-03T13:44:00.618Z,101069.25
2023-04-03T13:46:38.389Z,101074.31
2023-04-03T13:49:22.592Z,101077.81
2023-04-03T13:52:04.310Z,101072.34
2023-04-03T13:54:40.879Z,101079.13
2023-04-03T13:57:18.836Z,101068.34
2023-04-03T13:59:48.596Z,101087.56
2023-04-03T14:02:22.893Z,101078.22
2023-04-03T14:04:59.275Z,101069.28
2023-04-03T14:07:30.330Z,101051.22
2023-04-03T14:10:02.521Z,101070.25
2023-04-03T14:12:37.370Z,101069.16
2023-04-03T14:15:19.517Z,101073.97
2023-04-03T14:17:49.104Z,101068.09
2023-04-03T14:20:21.652Z,101066.34
2023-04-03T14:22:52.463Z,101058.19
2023-04-03T14:25:26.957Z,101066.94
2023-04-03T14:27:57.500Z,101086.00
2023-04-03T14:30:31.240Z,101068.69
2023-04-03T14:33:02.025Z,101070.97
2023-04-03T14:35:32.165Z,101084.91
2023-04-03T14:38:01.784Z,101081.03
2023-04-03T14:40:34.044Z,101071.41
2023-04-03T14:43:03.657Z,101060.66
2023-04-03T14:45:33.371Z,101076.44
2023-04-03T14:48:03.218Z,101067.72
2023-04-03T14:50:32.813Z,101059.13
2023-04-03T14:53:03.173Z,101064.81
2023-04-03T14:55:36.394Z,101056.09
2023-04-03T14:58:06.154Z,101072.31
2023-04-03T15:00:35.863Z,101069.34
2023-04-03T15:03:05.593Z,101074.34
2023-04-03T15:05:35.370Z,101072.53
2023-04-03T15:08:05.087Z,101072.88
2023-04-03T15:10:37.433Z,101061.00
2023-04-03T15:13:07.212Z,101046.81
2023-04-03T15:15:43.009Z,101082.66
2023-04-03T15:18:19.372Z,101064.91
2023-04-03T15:20:49.339Z,101060.13
2023-04-03T15:23:20.184Z,101073.03
2023-04-03T15:25:52.864Z,101078.16
2023-04-03T15:28:27.220Z,101073.78
2023-04-03T15:30:56.826Z,101049.81
2023-04-03T15:33:26.994Z,101068.84
2023-04-03T15:36:06.518Z,101077.03
2023-04-03T15:38:39.277Z,101078.81
2023-04-03T15:41:11.601Z,101092.75
2023-04-03T15:43:41.228Z,101079.28
2023-04-03T15:46:11.225Z,101078.72
2023-04-03T15:48:40.968Z,101084.84
2023-04-03T15:51:10.609Z,101087.00
2023-04-03T15:53:40.194Z,101085.56
2023-04-03T15:56:13.025Z,101081.03
2023-04-03T15:58:42.712Z,101090.94
2023-04-03T16:01:13.792Z,101086.00
2023-04-03T16:03:46.535Z,101087.72
2023-04-03T16:06:16.858Z,101084.78
2023-04-03T16:08:47.434Z,101082.81
2023-04-03T16:11:19.594Z,101088.09
2023-04-03T16:13:49.162Z,101084.88
2023-04-03T16:16:19.002Z,101093.91
2023-04-03T16:18:49.131Z,101087.00
2023-04-03T16:21:19.614Z,101093.09
2023-04-03T16:23:49.313Z,101094.19
2023-04-03T16:26:21.485Z,101099.34
2023-04-03T16:28:51.279Z,101113.09
2023-04-03T16:31:21.098Z,101102.63
2023-04-03T16:33:50.846Z,101112.69
2023-04-03T16:36:20.569Z,101097.75
2023-04-03T16:38:50.402Z,101101.19
2023-04-03T16:41:22.591Z,101099.19
2023-04-03T16:43:52.260Z,101106.03
2023-04-03T16:46:21.956Z,101109.47
2023-04-03T16:48:51.507Z,101106.72
2023-04-03T16:51:21.099Z,101110.16
2023-04-03T16:53:50.652Z,101114.38
2023-04-03T16:56:23.282Z,101108.16
2023-04-03T16:58:52.952Z,101120.19
2023-04-03T17:01:24.531Z,101117.66
2023-04-03T17:03:54.440Z,101114.13
2023-04-03T17:06:26.090Z,101116.50
2023-04-03T17:08:56.340Z,101107.78
2023-04-03T17:11:29.398Z,101111.22
2023-04-03T17:13:58.983Z,101115.25
2023-04-03T17:16:29.771Z,101111.75
2023-04-03T17:18:59.821Z,101117.78
2023-04-03T17:21:29.684Z,101110.66
2023-04-03T17:24:02.663Z,101110.66
2023-04-03T17:26:34.853Z,101115.72
2023-04-03T17:29:04.424Z,101120.91
2023-04-03T17:31:34.268Z,101124.28
2023-04-03T17:34:04.675Z,101122.50
2023-04-03T17:36:35.763Z,101130.94
2023-04-03T17:39:05.532Z,101121.28
2023-04-03T17:41:37.918Z,101137.81
2023-04-03T17:44:07.560Z,101130.06
2023-04-03T17:46:37.188Z,101127.25
2023-04-03T17:49:07.279Z,101128.16
2023-04-03T17:51:37.178Z,101131.34
2023-04-03T17:54:06.912Z,101126.06
2023-04-03T17:56:39.451Z,101124.28
2023-04-03T17:59:09.252Z,101134.63
2023-04-03T18:01:41.349Z,101130.88
2023-04-03T18:04:11.185Z,101129.41
2023-04-03T18:06:44.282Z,101132.81
2023-04-03T18:09:16.972Z,101120.47
2023-04-03T18:11:51.110Z,101125.59
2023-04-03T18:14:24.639Z,101132.63
2023-04-03T18:16:54.485Z,101132.63
2023-04-03T18:19:24.212Z,101135.06
2023-04-03T18:21:54.304Z,101133.41
2023-04-03T18:24:25.414Z,101128.28
2023-04-03T18:27:01.449Z,101130.97
2023-04-03T18:29:33.516Z,101133.50
2023-04-03T18:32:05.593Z,101144.78
2023-04-03T18:34:35.597Z,101134.31
2023-04-03T18:37:06.253Z,101135.13
2023-04-03T18:39:36.309Z,101131.47
2023-04-03T18:42:13.173Z,101135.66
2023-04-03T18:44:44.209Z,101142.47
2023-04-03T18:47:14.586Z,101136.47
2023-04-03T18:49:46.046Z,101140.69
2023-04-03T18:52:16.204Z,101146.72
2023-04-03T18:54:45.818Z,101135.16
2023-04-03T18:57:17.917Z,101145.47
2023-04-03T18:59:47.460Z,101141.72
2023-04-03T19:02:18.808Z,101134.75
2023-04-03T19:04:48.921Z,101127.63
2023-04-03T19:07:18.539Z,101139.88
2023-04-03T19:09:48.321Z,101131.19
2023-04-03T19:12:21.065Z,101126.72
2023-04-03T19:14:50.696Z,101124.19
2023-04-03T19:17:20.371Z,101127.63
2023-04-03T19:19:50.017Z,101137.03
2023-04-03T19:22:19.653Z,101129.19
2023-04-03T19:24:49.275Z,101131.72
2023-04-03T19:27:21.388Z,101135.84
2023-04-03T19:29:51.830Z,101140.22
2023-04-03T19:32:21.497Z,101129.81
2023-04-03T19:34:51.253Z,101133.41
2023-04-03T19:37:21.141Z,101137.50
2023-04-03T19:39:50.812Z,101137.50
2023-04-03T19:42:23.958Z,101133.09
2023-04-03T19:44:54.747Z,101130.28
2023-04-03T19:47:24.890Z,101136.19
2023-04-03T19:49:54.701Z,101142.38
2023-04-03T19:52:24.274Z,101135.16
2023-04-03T19:54:53.851Z,101141.91
2023-04-03T19:57:26.081Z,101145.31
2023-04-03T19:59:55.776Z,101142.28
2023-04-03T20:02:25.336Z,101136.13
2023-04-03T20:04:55.413Z,101144.63
2023-04-03T20:07:25.322Z,101149.91
2023-04-03T20:09:54.865Z,101142.13
2023-04-03T20:12:27.615Z,101145.31
2023-04-03T20:15:00.154Z,101149.84
2023-04-03T20:17:30.047Z,101144.56
2023-04-03T20:20:01.772Z,101141.97
2023-04-03T20:22:31.711Z,101149.63
2023-04-03T20:25:06.420Z,101149.63
2023-04-03T20:27:39.745Z,101153.84
2023-04-03T20:30:11.637Z,101153.47
2023-04-03T20:32:41.215Z,101159.94
2023-04-03T20:35:11.450Z,101154.44
2023-04-03T20:37:42.487Z,101155.84
2023-04-03T20:40:13.570Z,101151.03
2023-04-03T20:42:46.501Z,101145.44
2023-04-03T20:45:16.186Z,101150.16
2023-04-03T20:47:46.047Z,101148.59
2023-04-03T20:50:15.759Z,101157.50
2023-04-03T20:52:45.352Z,101157.81
2023-04-03T20:55:14.885Z,101147.75
2023-04-03T20:57:54.266Z,101155.00
2023-04-03T21:00:24.628Z,101145.19
2023-04-03T21:02:57.165Z,101155.78
2023-04-03T21:05:30.475Z,101152.91
2023-04-03T21:08:30.146Z,101152.56
2023-04-03T21:11:31.785Z,101147.69
2023-04-03T21:14:33.717Z,101159.09
2023-04-03T21:17:03.025Z,101157.97
2023-04-03T21:19:35.580Z,101152.69
2023-04-03T21:22:05.167Z,101149.81
2023-04-03T21:24:34.779Z,101151.34
2023-04-03T21:27:04.944Z,101147.34
2023-04-03T21:29:34.565Z,101147.06
2023-04-03T21:32:04.505Z,101145.00
2023-04-03T21:34:36.954Z,101152.69
2023-04-03T21:37:08.928Z,101150.63
2023-04-03T21:39:38.650Z,101147.75
2023-04-03T21:42:08.241Z,101149.72
2023-04-03T21:44:38.340Z,101155.44
2023-04-03T21:47:08.010Z,101150.25
2023-04-03T21:49:40.507Z,101147.28
2023-04-03T21:52:10.159Z,101147.91
2023-04-03T21:54:39.695Z,101150.25
2023-04-03T21:57:11.796Z,101148.34
2023-04-03T21:59:42.099Z,101146.28
2023-04-03T22:02:11.805Z,101151.19
2023-04-03T22:04:44.004Z,101144.47
2023-04-03T22:07:13.562Z,101146.44
2023-04-03T22:09:43.110Z,101148.75
2023-04-03T22:12:12.987Z,101137.78
2023-04-03T22:14:42.560Z,101148.66
2023-04-03T22:17:12.348Z,101160.78
2023-04-03T22:19:44.426Z,101151.66
2023-04-03T22:22:14.386Z,101155.38
2023-04-03T22:24:43.958Z,101153.19
2023-04-03T22:27:13.467Z,101161.88
2023-04-03T22:29:43.096Z,101159.88
2023-04-03T22:32:12.744Z,101158.88
2023-04-03T22:34:44.853Z,101169.31
2023-04-03T22:37:14.362Z,101168.97
2023-04-03T22:39:43.924Z,101166.47
2023-04-03T22:42:13.413Z,101163.91
2023-04-03T22:44:42.974Z,101165.88
2023-04-03T22:47:12.951Z,101159.38
2023-04-03T22:49:45.037Z,101165.00
2023-04-03T22:52:14.569Z,101164.91
2023-04-03T22:54:44.123Z,101164.00
2023-04-03T22:57:13.666Z,101161.72
2023-04-03T22:59:43.193Z,101167.69
2023-04-03T23:02:12.961Z,101172.75
2023-04-03T23:04:45.193Z,101167.78
2023-04-03T23:07:15.450Z,101167.59
2023-04-03T23:09:44.943Z,101177.03
2023-04-03T23:12:14.562Z,101164.91
2023-04-03T23:14:44.051Z,101171.78
2023-04-03T23:17:13.579Z,101168.78
2023-04-03T23:19:45.692Z,101169.38
2023-04-03T23:22:15.334Z,101161.63
2023-04-03T23:24:45.306Z,101166.00
2023-04-03T23:27:14.823Z,101162.22
2023-04-03T23:29:44.818Z,101166.69
2023-04-03T23:32:14.363Z,101154.78
2023-04-03T23:34:46.617Z,101160.84
2023-04-03T23:37:16.594Z,101153.16
2023-04-03T23:39:46.486Z,101157.81
2023-04-03T23:42:16.088Z,101152.06
2023-04-03T23:44:45.927Z,101152.06
2023-04-03T23:47:15.411Z,101143.63
2023-04-03T23:49:47.530Z,101149.94
2023-04-03T23:52:17.502Z,101143.00
2023-04-03T23:54:47.084Z,101139.50
2023-04-03T23:57:16.682Z,101142.28
2023-04-03T23:59:46.382Z,101133.63
